createdAt,value
2023-04-17T00:00:48.124Z,6.10
2023-04-17T00:03:17.116Z,4.47
2023-04-17T00:05:47.004Z,5.40
2023-04-17T00:08:15.290Z,5.93
2023-04-17T00:10:45.553Z,5.83
2023-04-17T00:13:17.729Z,5.73
2023-04-17T00:15:45.982Z,5.30
2023-04-17T00:18:15.221Z,5.57
2023-04-17T00:20:43.604Z,5.77
2023-04-17T00:23:13.272Z,6.60
2023-04-17T00:25:44.610Z,5.53
2023-04-17T00:28:12.648Z,5.27
2023-04-17T00:30:41.207Z,5.67
2023-04-17T00:33:10.315Z,4.90
2023-04-17T00:35:38.742Z,5.77
2023-04-17T00:38:07.958Z,5.90
2023-04-17T00:40:40.124Z,5.43
2023-04-17T00:43:08.452Z,5.77
2023-04-17T00:45:38.230Z,5.60
2023-04-17T00:48:09.071Z,5.50
2023-04-17T00:50:38.041Z,5.70
2023-04-17T00:53:07.728Z,5.67
2023-04-17T00:55:40.996Z,5.67
2023-04-17T00:58:09.697Z,5.63
2023-04-17T01:00:38.201Z,6.50
2023-04-17T01:03:07.429Z,6.03
2023-04-17T01:05:40.436Z,6.53
2023-04-17T01:08:08.692Z,6.67
2023-04-17T01:10:38.351Z,6.33
2023-04-17T01:13:07.936Z,6.33
2023-04-17T01:15:38.104Z,6.30
2023-04-17T01:18:07.245Z,6.83
2023-04-17T01:20:38.482Z,6.07
2023-04-17T01:23:07.458Z,5.67
2023-04-17T01:25:37.292Z,7.00
2023-04-17T01:28:08.327Z,7.17
2023-04-17T01:30:38.446Z,8.00
2023-04-17T01:33:07.745Z,5.90
2023-04-17T01:35:38.022Z,5.80
2023-04-17T01:38:08.110Z,6.57
2023-04-17T01:40:39.261Z,6.53
2023-04-17T01:43:09.733Z,7.43
2023-04-17T01:45:39.115Z,6.40
2023-04-17T01:48:07.726Z,5.93
2023-04-17T01:50:37.468Z,6.40
2023-04-17T01:53:05.840Z,6.30
2023-04-17T01:55:36.390Z,6.33
2023-04-17T01:58:10.929Z,6.70
2023-04-17T02:00:41.118Z,6.77
2023-04-17T02:03:10.745Z,7.43
2023-04-17T02:05:38.934Z,7.67
2023-04-17T02:08:07.200Z,7.60
2023-04-17T02:10:35.518Z,6.80
2023-04-17T02:13:05.203Z,6.90
2023-04-17T02:15:33.102Z,7.53
2023-04-17T02:18:01.777Z,6.73
2023-04-17T02:20:29.959Z,6.87
2023-04-17T02:22:57.742Z,6.47
2023-04-17T02:25:25.557Z,7.30
2023-04-17T02:27:54.259Z,7.00
2023-04-17T02:30:23.844Z,6.47
2023-04-17T02:32:52.964Z,6.27
2023-04-17T02:35:21.735Z,7.37
2023-04-17T02:37:49.604Z,6.97
2023-04-17T02:40:17.727Z,7.20
2023-04-17T02:42:45.621Z,6.50
2023-04-17T02:45:13.560Z,5.97
2023-04-17T02:47:42.862Z,7.10
2023-04-17T02:50:11.945Z,6.43
2023-04-17T02:52:41.008Z,6.07
2023-04-17T02:55:09.733Z,7.50
2023-04-17T02:57:37.562Z,6.77
2023-04-17T03:00:08.972Z,7.87
2023-04-17T03:02:38.133Z,7.13
2023-04-17T03:05:08.165Z,6.20
2023-04-17T03:07:36.119Z,6.30
2023-04-17T03:10:04.248Z,6.60
2023-04-17T03:12:32.039Z,7.40
2023-04-17T03:14:59.861Z,5.67
2023-04-17T03:17:27.879Z,7.07
2023-04-17T03:19:55.823Z,7.07
2023-04-17T03:22:25.010Z,7.20
2023-04-17T03:24:52.817Z,6.67
2023-04-17T03:27:24.294Z,6.23
2023-04-17T03:29:52.208Z,7.17
2023-04-17T03:32:20.111Z,7.67
2023-04-17T03:34:47.941Z,7.43
2023-04-17T03:37:15.767Z,7.20
2023-04-17T03:39:45.046Z,7.00
2023-04-17T03:42:14.759Z,7.13
2023-04-17T03:44:42.729Z,7.23
2023-04-17T03:47:11.385Z,6.63
2023-04-17T03:49:39.226Z,7.73
2023-04-17T03:52:07.149Z,6.73
2023-04-17T03:54:35.896Z,7.03
2023-04-17T03:57:05.374Z,6.63
2023-04-17T03:59:33.326Z,6.77
2023-04-17T04:02:01.326Z,6.63
2023-04-17T04:04:29.497Z,7.07
2023-04-17T04:06:58.037Z,8.43
2023-04-17T04:09:26.429Z,6.83
2023-04-17T04:11:54.837Z,8.93
2023-04-17T04:14:24.465Z,6.70
2023-04-17T04:16:52.792Z,6.47
2023-04-17T04:19:20.610Z,6.47
2023-04-17T04:21:48.415Z,7.97
2023-04-17T04:24:16.663Z,6.90
2023-04-17T04:26:47.438Z,7.17
2023-04-17T04:29:15.322Z,8.23
2023-04-17T04:31:46.559Z,7.07
2023-04-17T04:34:16.866Z,8.33
2023-04-17T04:36:50.019Z,6.63
2023-04-17T04:39:20.594Z,7.80
2023-04-17T04:41:50.774Z,8.27
2023-04-17T04:44:18.918Z,8.23
2023-04-17T04:46:48.060Z,8.03
2023-04-17T04:49:16.259Z,6.90
2023-04-17T04:51:44.245Z,8.90
2023-04-17T04:54:12.274Z,8.73
2023-04-17T04:56:40.620Z,6.17
2023-04-17T04:59:08.624Z,8.70
2023-04-17T05:01:36.662Z,7.73
2023-04-17T05:04:06.403Z,8.90
2023-04-17T05:06:34.571Z,8.43
2023-04-17T05:09:02.444Z,8.37
2023-04-17T05:11:30.852Z,8.50
2023-04-17T05:13:58.792Z,8.27
2023-04-17T05:16:26.848Z,8.50
2023-04-17T05:18:54.836Z,7.50
2023-04-17T05:21:24.033Z,8.80
2023-04-17T05:23:51.967Z,9.70
2023-04-17T05:26:21.923Z,9.87
2023-04-17T05:28:49.824Z,7.93
2023-04-17T05:31:18.101Z,8.33
2023-04-17T05:33:46.085Z,8.33
2023-04-17T05:36:14.025Z,8.37
2023-04-17T05:38:45.946Z,8.40
2023-04-17T05:41:14.213Z,8.33
2023-04-17T05:43:42.969Z,9.10
2023-04-17T05:46:10.979Z,8.23
2023-04-17T05:48:39.107Z,10.40
2023-04-17T05:51:07.252Z,8.57
2023-04-17T05:53:36.098Z,9.27
2023-04-17T05:56:05.843Z,8.63
2023-04-17T05:58:36.101Z,9.13
2023-04-17T06:01:06.118Z,8.47
2023-04-17T06:03:34.312Z,9.60
2023-04-17T06:06:02.489Z,9.17
2023-04-17T06:08:30.544Z,9.33
2023-04-17T06:10:58.541Z,9.50
2023-04-17T06:13:27.827Z,9.07
2023-04-17T06:15:55.701Z,9.80
2023-04-17T06:18:23.725Z,9.87
2023-04-17T06:20:51.782Z,10.17
2023-04-17T06:23:19.786Z,8.77
2023-04-17T06:25:47.756Z,10.00
2023-04-17T06:28:15.817Z,10.23
2023-04-17T06:30:45.255Z,11.50
2023-04-17T06:33:13.085Z,11.10
2023-04-17T06:35:41.072Z,10.67
2023-04-17T06:38:09.812Z,10.63
2023-04-17T06:40:38.503Z,11.77
2023-04-17T06:43:06.513Z,10.17
2023-04-17T06:45:34.455Z,11.00
2023-04-17T06:48:03.791Z,10.87
2023-04-17T06:50:31.818Z,10.50
2023-04-17T06:52:59.791Z,11.77
2023-04-17T06:55:27.855Z,10.27
2023-04-17T06:57:55.953Z,11.57
2023-04-17T07:00:24.584Z,11.77
2023-04-17T07:02:52.595Z,10.63
2023-04-17T07:05:22.043Z,11.03
2023-04-17T07:07:50.204Z,10.60
2023-04-17T07:10:19.519Z,10.83
2023-04-17T07:12:47.657Z,10.13
2023-04-17T07:15:16.521Z,11.40
2023-04-17T07:17:44.487Z,9.63
2023-04-17T07:20:13.121Z,10.17
2023-04-17T07:22:43.182Z,10.93
2023-04-17T07:25:11.528Z,9.17
2023-04-17T07:27:39.605Z,9.57
2023-04-17T07:30:09.791Z,8.90
2023-04-17T07:32:37.821Z,9.67
2023-04-17T07:35:06.480Z,8.73
2023-04-17T07:37:36.994Z,9.10
2023-04-17T07:40:10.309Z,8.90
2023-04-17T07:42:38.232Z,9.03
2023-04-17T07:45:06.942Z,8.40
2023-04-17T07:47:34.923Z,9.90
2023-04-17T07:50:03.118Z,10.30
2023-04-17T07:52:31.225Z,9.60
2023-04-17T07:54:59.246Z,10.50
2023-04-17T07:57:28.449Z,9.03
2023-04-17T07:59:56.566Z,8.77
2023-04-17T08:02:24.535Z,9.70
2023-04-17T08:04:53.818Z,9.40
2023-04-17T08:07:22.278Z,8.80
2023-04-17T08:09:51.075Z,9.73
2023-04-17T08:12:18.977Z,8.73
2023-04-17T08:17:20.188Z,8.50
2023-04-17T08:19:50.300Z,10.20
2023-04-17T08:22:19.664Z,9.67
2023-04-17T08:24:48.052Z,9.40
2023-04-17T08:27:16.117Z,9.70
2023-04-17T08:29:44.676Z,10.07
2023-04-17T08:32:14.530Z,10.10
2023-04-17T08:34:46.000Z,9.93
2023-04-17T08:37:14.126Z,8.47
2023-04-17T08:39:42.105Z,8.80
2023-04-17T08:42:17.485Z,9.50
2023-04-17T08:44:46.789Z,8.40
2023-04-17T08:47:14.977Z,9.80
2023-04-17T08:49:46.187Z,11.27
2023-04-17T08:52:14.601Z,9.23
2023-04-17T08:54:42.690Z,9.80
2023-04-17T08:57:10.620Z,10.50
2023-04-17T08:59:38.664Z,10.30
2023-04-17T09:02:08.225Z,10.57
2023-04-17T09:04:41.893Z,11.47
2023-04-17T09:07:13.154Z,10.43
2023-04-17T09:09:51.828Z,10.40
2023-04-17T09:12:20.539Z,10.03
2023-04-17T09:14:48.725Z,10.77
2023-04-17T09:17:18.573Z,12.10
2023-04-17T09:20:07.926Z,9.13
2023-04-17T09:22:39.414Z,11.23
2023-04-17T09:25:26.365Z,10.57
2023-04-17T09:27:54.324Z,11.13
2023-04-17T09:30:23.139Z,10.23
2023-04-17T09:33:04.699Z,10.50
2023-04-17T09:35:33.352Z,9.33
2023-04-17T09:38:02.708Z,10.00
2023-04-17T09:40:38.927Z,10.07
2023-04-17T09:43:09.784Z,9.73
2023-04-17T09:45:42.472Z,10.43
2023-04-17T09:48:12.499Z,9.53
2023-04-17T09:50:41.253Z,9.73
2023-04-17T09:53:11.690Z,10.37
2023-04-17T09:55:43.570Z,9.40
2023-04-17T09:58:12.343Z,9.77
2023-04-17T10:00:42.931Z,9.40
2023-04-17T10:03:11.590Z,9.80
2023-04-17T10:05:40.098Z,9.60
2023-04-17T10:08:11.356Z,8.27
2023-04-17T10:10:39.592Z,9.43
2023-04-17T10:13:12.600Z,8.00
2023-04-17T10:15:41.184Z,8.30
2023-04-17T10:18:23.250Z,9.17
2023-04-17T10:20:53.658Z,9.00
2023-04-17T10:23:33.902Z,7.10
2023-04-17T10:26:43.546Z,7.67
2023-04-17T10:29:12.813Z,8.20
2023-04-17T10:32:17.964Z,7.90
2023-04-17T10:34:46.436Z,8.90
2023-04-17T10:37:16.209Z,7.10
2023-04-17T10:39:57.657Z,7.73
2023-04-17T10:42:28.061Z,7.07
2023-04-17T10:45:01.848Z,7.57
2023-04-17T10:47:33.059Z,7.97
2023-04-17T10:50:03.982Z,7.60
2023-04-17T10:52:40.361Z,6.83
2023-04-17T10:55:13.679Z,7.23
2023-04-17T10:58:01.058Z,6.93
2023-04-17T11:00:33.075Z,7.70
2023-04-17T11:03:02.550Z,8.13
2023-04-17T11:05:31.440Z,7.27
2023-04-17T11:08:00.039Z,7.20
2023-04-17T11:10:29.693Z,7.43
2023-04-17T11:12:57.746Z,8.03
2023-04-17T11:15:29.841Z,7.37
2023-04-17T11:17:58.610Z,7.20
2023-04-17T11:20:30.177Z,7.27
2023-04-17T11:22:58.441Z,7.73
2023-04-17T11:25:30.240Z,7.13
2023-04-17T11:28:00.875Z,6.20
2023-04-17T11:30:30.871Z,7.00
2023-04-17T11:33:00.466Z,6.73
2023-04-17T11:35:33.458Z,6.37
2023-04-17T11:38:21.690Z,6.37
2023-04-17T11:40:52.151Z,6.60
2023-04-17T11:43:23.028Z,6.60
2023-04-17T11:45:52.941Z,6.43
2023-04-17T11:48:23.634Z,5.73
2023-04-17T11:50:56.132Z,5.33
2023-04-17T11:53:24.734Z,6.20
2023-04-17T11:56:14.528Z,5.47
2023-04-17T11:58:54.650Z,6.43
2023-04-17T12:01:25.442Z,6.10
2023-04-17T12:03:54.432Z,5.93
2023-04-17T12:06:25.485Z,5.63
2023-04-17T12:08:55.744Z,5.87
2023-04-17T12:11:32.818Z,4.83
2023-04-17T12:14:02.818Z,4.77
2023-04-17T12:16:31.566Z,6.07
2023-04-17T12:18:59.724Z,6.17
2023-04-17T12:21:27.738Z,5.70
2023-04-17T12:23:56.104Z,5.80
2023-04-17T12:26:25.540Z,6.17
2023-04-17T12:28:53.915Z,5.97
2023-04-17T12:31:23.261Z,5.80
2023-04-17T12:33:52.493Z,5.20
2023-04-17T12:36:20.654Z,4.93
2023-04-17T12:38:48.685Z,5.27
2023-04-17T12:41:16.712Z,4.97
2023-04-17T12:43:44.630Z,4.47
2023-04-17T12:46:12.642Z,5.47
2023-04-17T12:48:42.062Z,5.17
2023-04-17T12:51:10.229Z,4.67
2023-04-17T12:53:38.407Z,5.83
2023-04-17T12:56:07.222Z,5.53
2023-04-17T12:58:35.252Z,6.03
2023-04-17T13:01:03.282Z,6.30
2023-04-17T13:03:31.405Z,5.63
2023-04-17T13:06:01.004Z,6.37
2023-04-17T13:08:29.178Z,5.97
2023-04-17T13:10:57.377Z,7.00
2023-04-17T13:13:25.407Z,6.03
2023-04-17T13:15:53.428Z,5.60
2023-04-17T13:18:21.480Z,6.13
2023-04-17T13:20:49.585Z,6.63
2023-04-17T13:23:18.961Z,6.30
2023-04-17T13:25:46.967Z,6.80
2023-04-17T13:28:14.997Z,6.47
2023-04-17T13:30:43.107Z,6.00
2023-04-17T13:33:11.107Z,6.20
2023-04-17T13:35:39.100Z,7.00
2023-04-17T13:38:07.655Z,6.70
2023-04-17T13:40:38.628Z,6.60
2023-04-17T13:43:07.164Z,7.07
2023-04-17T13:45:36.078Z,6.90
2023-04-17T13:48:04.307Z,6.50
2023-04-17T13:50:32.279Z,6.53
2023-04-17T13:53:00.505Z,6.73
2023-04-17T13:55:28.482Z,5.07
2023-04-17T13:57:58.878Z,6.10
2023-04-17T14:00:27.158Z,6.60
2023-04-17T14:02:55.209Z,6.07
2023-04-17T14:05:23.546Z,5.53
2023-04-17T14:07:51.615Z,6.03
2023-04-17T14:10:19.734Z,5.80
2023-04-17T14:12:47.691Z,6.17
2023-04-17T14:17:47.959Z,5.77
2023-04-17T14:20:16.790Z,5.07
2023-04-17T14:22:44.610Z,5.10
2023-04-17T14:25:12.651Z,5.73
2023-04-17T14:27:40.677Z,5.03
2023-04-17T14:30:10.008Z,5.80
2023-04-17T14:32:38.604Z,5.27
2023-04-17T14:35:08.733Z,5.30
2023-04-17T14:37:36.900Z,5.40
2023-04-17T14:40:05.725Z,6.27
2023-04-17T14:42:40.758Z,6.10
2023-04-17T14:45:15.234Z,6.20
2023-04-17T14:47:43.999Z,6.03
2023-04-17T14:50:13.491Z,7.03
2023-04-17T14:52:41.493Z,5.47
2023-04-17T14:55:10.645Z,5.87
2023-04-17T14:57:38.640Z,5.83
2023-04-17T15:00:08.213Z,6.57
2023-04-17T15:02:38.968Z,7.70
2023-04-17T15:05:07.967Z,7.37
2023-04-17T15:07:37.236Z,7.53
2023-04-17T15:10:05.915Z,6.93
2023-04-17T15:12:33.822Z,7.23
2023-04-17T15:15:01.855Z,7.23
2023-04-17T15:17:29.748Z,7.77
2023-04-17T15:19:58.594Z,7.90
2023-04-17T15:22:27.000Z,7.73
2023-04-17T15:24:56.294Z,8.33
2023-04-17T15:27:24.325Z,8.67
2023-04-17T15:29:52.197Z,7.03
2023-04-17T15:32:20.379Z,8.27
2023-04-17T15:34:48.475Z,10.27
2023-04-17T15:37:16.496Z,7.93
2023-04-17T15:39:44.377Z,12.53
2023-04-17T15:42:13.626Z,8.30
2023-04-17T15:44:41.541Z,7.50
2023-04-17T15:47:10.067Z,8.03
2023-04-17T15:49:38.033Z,7.53
2023-04-17T15:52:06.834Z,8.50
2023-04-17T15:54:34.700Z,8.37
2023-04-17T15:57:02.584Z,8.47
2023-04-17T15:59:33.115Z,7.00
2023-04-17T16:02:01.231Z,8.47
2023-04-17T16:04:29.523Z,7.90
2023-04-17T16:06:57.677Z,8.60
2023-04-17T16:09:25.700Z,7.47
2023-04-17T16:11:53.937Z,8.33
2023-04-17T16:14:21.896Z,6.50
2023-04-17T16:16:51.220Z,6.57
2023-04-17T16:19:19.668Z,6.90
2023-04-17T16:21:47.530Z,5.07
2023-04-17T16:24:15.598Z,7.13
2023-04-17T16:26:44.025Z,5.73
2023-04-17T16:29:12.338Z,5.83
2023-04-17T16:31:41.226Z,8.20
2023-04-17T16:34:12.508Z,9.10
2023-04-17T16:36:45.360Z,7.00
2023-04-17T16:39:14.473Z,6.03
2023-04-17T16:41:42.810Z,4.53
2023-04-17T16:44:10.951Z,6.30
2023-04-17T16:47:03.004Z,5.23
2023-04-17T16:49:28.581Z,5.00
2023-04-17T16:51:56.702Z,6.50
2023-04-17T16:54:24.539Z,6.30
2023-04-17T16:56:53.192Z,5.17
2023-04-17T16:59:21.268Z,5.97
2023-04-17T17:01:49.787Z,5.57
2023-04-17T17:04:17.840Z,5.83
2023-04-17T17:06:47.203Z,6.43
2023-04-17T17:09:15.329Z,5.17
2023-04-17T17:11:43.367Z,4.93
2023-04-17T17:14:11.412Z,5.73
2023-04-17T17:16:40.899Z,5.40
2023-04-17T17:19:09.022Z,4.77
2023-04-17T17:21:37.102Z,5.93
2023-04-17T17:24:07.390Z,5.70
2023-04-17T17:26:36.980Z,4.83
2023-04-17T17:29:05.277Z,5.63
2023-04-17T17:31:34.750Z,5.83
2023-04-17T17:34:16.581Z,5.23
2023-04-17T17:36:51.086Z,5.50
2023-04-17T17:39:21.996Z,4.77
2023-04-17T17:41:50.354Z,5.50
2023-04-17T17:44:18.485Z,4.50
2023-04-17T17:46:46.440Z,5.73
2023-04-17T17:49:14.517Z,5.03
2023-04-17T17:51:44.490Z,4.40
2023-04-17T17:54:12.895Z,4.77
2023-04-17T17:56:42.517Z,4.87
2023-04-17T17:59:10.491Z,5.37
2023-04-17T18:01:38.568Z,3.77
2023-04-17T18:04:06.694Z,5.07
2023-04-17T18:06:35.138Z,5.37
2023-04-17T18:09:03.939Z,5.10
2023-04-17T18:11:31.929Z,5.97
2023-04-17T18:14:01.708Z,5.50
2023-04-17T18:16:31.547Z,6.17
2023-04-17T18:19:02.052Z,5.50
2023-04-17T18:21:30.085Z,5.10
2023-04-17T18:23:58.355Z,5.27
2023-04-17T18:26:26.314Z,5.57
2023-04-17T18:28:54.382Z,5.23
2023-04-17T18:31:25.241Z,5.60
2023-04-17T18:33:53.624Z,5.10
2023-04-17T18:36:21.623Z,4.97
2023-04-17T18:38:49.653Z,5.07
2023-04-17T18:41:17.742Z,5.87
2023-04-17T18:43:46.206Z,5.80
2023-04-17T18:46:14.196Z,6.90
2023-04-17T18:48:43.580Z,5.47
2023-04-17T18:51:12.549Z,6.53
2023-04-17T18:53:40.529Z,5.53
2023-04-17T18:56:10.791Z,6.07
2023-04-17T18:58:40.356Z,5.63
2023-04-17T19:01:10.406Z,6.63
2023-04-17T19:03:38.841Z,5.43
2023-04-17T19:06:08.257Z,4.83
2023-04-17T19:08:36.675Z,4.73
2023-04-17T19:11:04.865Z,5.33
2023-04-17T19:13:32.927Z,5.97
2023-04-17T19:16:00.984Z,5.80
2023-04-17T19:18:30.470Z,5.67
2023-04-17T19:20:58.471Z,5.50
2023-04-17T19:23:27.889Z,5.83
2023-04-17T19:25:56.531Z,5.80
2023-04-17T19:28:25.506Z,6.13
2023-04-17T19:30:54.080Z,5.23
2023-04-17T19:33:22.997Z,6.10
2023-04-17T19:35:52.416Z,4.77
2023-04-17T19:38:20.564Z,5.20
2023-04-17T19:41:11.959Z,5.77
2023-04-17T19:43:39.993Z,4.90
2023-04-17T19:46:08.855Z,5.47
2023-04-17T19:48:36.952Z,5.00
2023-04-17T19:51:06.369Z,6.30
2023-04-17T19:53:36.003Z,5.67
2023-04-17T19:56:08.280Z,6.73
2023-04-17T19:58:37.088Z,5.60
2023-04-17T20:01:05.692Z,6.07
2023-04-17T20:03:34.224Z,5.97
2023-04-17T20:06:03.557Z,7.27
2023-04-17T20:08:31.722Z,6.73
2023-04-17T20:10:59.716Z,6.77
2023-04-17T20:13:29.127Z,6.03
2023-04-17T20:15:57.636Z,7.43
2023-04-17T20:18:27.787Z,6.47
2023-04-17T20:20:55.837Z,6.97
2023-04-17T20:23:24.013Z,7.20
2023-04-17T20:25:51.971Z,7.53
2023-04-17T20:28:20.189Z,7.17
2023-04-17T20:30:50.950Z,7.07
2023-04-17T20:33:19.049Z,7.70
2023-04-17T20:35:47.206Z,7.43
2023-04-17T20:38:15.359Z,7.87
2023-04-17T20:40:43.870Z,7.10
2023-04-17T20:43:13.048Z,6.93
2023-04-17T20:45:41.182Z,7.37
2023-04-17T20:48:10.496Z,6.43
2023-04-17T20:50:38.528Z,8.67
2023-04-17T20:53:06.687Z,7.60
2023-04-17T20:55:34.756Z,7.27
2023-04-17T20:58:02.949Z,7.87
2023-04-17T21:00:30.855Z,8.87
2023-04-17T21:02:58.881Z,7.47
2023-04-17T21:05:28.429Z,6.90
2023-04-17T21:07:57.833Z,8.70
2023-04-17T21:10:25.959Z,7.60
2023-04-17T21:12:53.933Z,8.60
2023-04-17T21:15:22.168Z,7.23
2023-04-17T21:17:50.208Z,8.03
2023-04-17T21:20:18.375Z,8.23
2023-04-17T21:22:47.742Z,8.30
2023-04-17T21:25:15.758Z,7.03
2023-04-17T21:27:43.963Z,7.93
2023-04-17T21:30:12.428Z,7.37
2023-04-17T21:32:42.288Z,6.97
2023-04-17T21:35:11.369Z,7.40
2023-04-17T21:37:39.399Z,7.97
2023-04-17T21:40:10.119Z,8.40
2023-04-17T21:42:38.117Z,7.47
2023-04-17T21:45:07.127Z,7.73
2023-04-17T21:47:35.632Z,6.93
2023-04-17T21:50:03.677Z,7.33
2023-04-17T21:52:32.006Z,7.23
2023-04-17T21:55:05.103Z,8.97
2023-04-17T21:57:35.135Z,7.50
2023-04-17T22:00:04.408Z,6.70
2023-04-17T22:02:32.597Z,7.20
2023-04-17T22:05:00.666Z,7.63
2023-04-17T22:07:28.799Z,7.27
2023-04-17T22:09:59.010Z,7.50
2023-04-17T22:12:27.023Z,7.60
2023-04-17T22:14:56.359Z,7.60
2023-04-17T22:17:24.402Z,7.47
2023-04-17T22:19:52.525Z,6.50
2023-04-17T22:22:20.602Z,7.40
2023-04-17T22:24:48.721Z,7.17
2023-04-17T22:27:16.739Z,7.33
2023-04-17T22:29:44.760Z,7.63
2023-04-17T22:32:14.168Z,7.73
2023-04-17T22:34:42.643Z,7.93
2023-04-17T22:37:10.605Z,7.57
2023-04-17T22:39:38.676Z,7.07
2023-04-17T22:42:06.690Z,7.47
2023-04-17T22:44:34.786Z,8.03
2023-04-17T22:47:02.874Z,7.03
2023-04-17T22:49:32.541Z,8.13
2023-04-17T22:52:01.038Z,7.13
2023-04-17T22:54:28.988Z,8.40
2023-04-17T22:56:56.905Z,7.70
2023-04-17T22:59:25.004Z,7.97
2023-04-17T23:01:53.480Z,7.53
2023-04-17T23:04:23.592Z,8.07
2023-04-17T23:06:53.032Z,7.93
2023-04-17T23:09:21.055Z,7.70
2023-04-17T23:11:48.962Z,7.43
2023-04-17T23:14:17.422Z,8.23
2023-04-17T23:16:45.562Z,7.43
2023-04-17T23:19:13.704Z,7.23
2023-04-17T23:21:41.733Z,6.23
2023-04-17T23:24:11.769Z,8.07
2023-04-17T23:26:39.902Z,7.47
2023-04-17T23:29:08.551Z,6.93
2023-04-17T23:31:38.122Z,7.20
2023-04-17T23:34:06.225Z,9.00
2023-04-17T23:36:34.296Z,7.77
2023-04-17T23:39:02.277Z,7.50
2023-04-17T23:41:34.159Z,7.77
2023-04-17T23:44:02.346Z,8.30
2023-04-17T23:46:30.917Z,7.03
2023-04-17T23:48:59.004Z,6.93
2023-04-17T23:51:27.587Z,7.23
2023-04-17T23:53:56.108Z,7.60
2023-04-17T23:56:24.186Z,7.80
2023-04-17T23:58:53.671Z,7.40
